createdAt,value
2018-12-23T00:02:19.329Z,8.49
2018-12-23T00:05:22.632Z,8.44
2018-12-23T00:08:25.986Z,8.48
2018-12-23T00:11:29.215Z,8.48
2018-12-23T00:14:32.423Z,8.40
2018-12-23T00:17:35.649Z,8.49
2018-12-23T00:20:38.852Z,8.42
2018-12-23T00:23:42.057Z,8.43
2018-12-23T00:26:45.272Z,8.47
2018-12-23T00:29:48.524Z,8.44
2018-12-23T00:32:51.755Z,8.41
2018-12-23T00:35:54.950Z,8.42
2018-12-23T00:38:58.301Z,8.48
2018-12-23T00:42:01.505Z,8.46
2018-12-23T00:45:06.006Z,8.38
2018-12-23T00:48:09.328Z,8.34
2018-12-23T00:51:12.652Z,8.32
2018-12-23T00:54:15.885Z,8.35
2018-12-23T00:57:19.419Z,8.34
2018-12-23T01:00:23.085Z,8.37
2018-12-23T01:03:26.333Z,8.42
2018-12-23T01:06:29.573Z,8.35
2018-12-23T01:09:32.807Z,8.35
2018-12-23T01:12:35.987Z,8.40
2018-12-23T01:15:39.185Z,8.38
2018-12-23T01:18:42.400Z,8.37
2018-12-23T01:21:45.575Z,8.41
2018-12-23T01:24:48.752Z,8.39
2018-12-23T01:27:51.928Z,8.32
2018-12-23T01:30:55.133Z,8.41
2018-12-23T01:33:58.396Z,8.38
2018-12-23T01:37:01.582Z,8.40
2018-12-23T01:40:05.828Z,8.38
2018-12-23T01:43:08.996Z,8.40
2018-12-23T01:46:12.356Z,8.42
2018-12-23T01:49:15.708Z,8.52
2018-12-23T01:52:18.889Z,8.40
2018-12-23T01:55:22.085Z,8.36
2018-12-23T01:58:25.372Z,8.45
2018-12-23T02:05:10.762Z,8.46
2018-12-23T02:08:15.021Z,8.51
2018-12-23T02:11:19.253Z,8.43
2018-12-23T02:14:22.741Z,8.38
2018-12-23T02:17:26.221Z,8.41
2018-12-23T02:20:30.044Z,8.44
2018-12-23T02:23:33.537Z,8.46
2018-12-23T02:26:37.026Z,8.46
2018-12-23T02:29:40.777Z,8.42
2018-12-23T02:32:45.000Z,8.48
2018-12-23T02:35:55.539Z,8.41
2018-12-23T02:38:53.910Z,8.42
2018-12-23T02:41:57.499Z,8.47
2018-12-23T02:45:01.441Z,8.52
2018-12-23T02:48:04.960Z,8.55
2018-12-23T02:51:08.563Z,8.42
2018-12-23T02:54:13.270Z,8.45
2018-12-23T02:57:16.779Z,8.40
2018-12-23T03:00:20.788Z,8.43
2018-12-23T03:03:25.019Z,8.45
2018-12-23T03:06:28.923Z,8.37
2018-12-23T03:09:32.435Z,8.38
2018-12-23T03:12:36.088Z,8.28
2018-12-23T03:15:39.967Z,8.34
2018-12-23T03:18:44.072Z,8.41
2018-12-23T03:21:47.869Z,8.32
2018-12-23T03:24:51.369Z,8.34
2018-12-23T03:27:55.664Z,8.28
2018-12-23T03:30:59.153Z,8.23
2018-12-23T03:34:03.021Z,8.25
2018-12-23T03:37:06.579Z,8.25
2018-12-23T03:40:10.090Z,8.30
2018-12-23T03:43:13.582Z,8.29
2018-12-23T03:46:17.387Z,8.34
2018-12-23T03:49:21.174Z,8.38
2018-12-23T03:52:24.748Z,8.24
2018-12-23T03:55:28.595Z,8.36
2018-12-23T03:58:32.069Z,8.38
2018-12-23T04:01:35.571Z,8.36
2018-12-23T04:04:39.060Z,8.33
2018-12-23T04:07:42.530Z,8.39
2018-12-23T04:10:48.052Z,8.36
2018-12-23T04:13:51.529Z,8.33
2018-12-23T04:16:55.685Z,8.31
2018-12-23T04:20:00.285Z,8.27
2018-12-23T04:23:04.530Z,8.32
2018-12-23T04:26:08.403Z,8.33
2018-12-23T04:29:11.905Z,8.38
2018-12-23T04:32:15.406Z,8.40
2018-12-23T04:35:19.209Z,8.33
2018-12-23T04:38:23.025Z,8.35
2018-12-23T04:41:27.365Z,8.34
2018-12-23T04:44:30.831Z,8.35
2018-12-23T04:47:34.323Z,8.39
2018-12-23T04:50:37.797Z,8.35
2018-12-23T04:53:41.291Z,8.31
2018-12-23T04:56:45.801Z,8.38
2018-12-23T04:59:49.968Z,8.44
2018-12-23T05:02:53.437Z,8.38
2018-12-23T05:05:56.933Z,8.37
2018-12-23T05:09:00.421Z,8.46
2018-12-23T05:12:04.541Z,8.43
2018-12-23T05:15:08.417Z,8.29
2018-12-23T05:18:12.269Z,8.37
2018-12-23T05:21:16.138Z,8.37
2018-12-23T05:24:19.652Z,8.36
2018-12-23T05:27:23.542Z,8.38
2018-12-23T05:30:27.367Z,8.41
2018-12-23T05:33:30.860Z,8.37
2018-12-23T05:36:34.373Z,8.39
2018-12-23T05:39:38.160Z,8.37
2018-12-23T05:42:41.985Z,8.38
2018-12-23T05:45:45.808Z,8.33
2018-12-23T05:48:49.297Z,8.36
2018-12-23T05:51:53.242Z,8.40
2018-12-23T05:54:57.125Z,8.31
2018-12-23T05:58:01.396Z,8.41
2018-12-23T06:01:05.569Z,8.37
2018-12-23T06:04:09.527Z,8.43
2018-12-23T06:07:13.664Z,8.43
2018-12-23T06:10:17.157Z,8.44
2018-12-23T06:13:21.406Z,8.41
2018-12-23T06:16:25.188Z,8.48
2018-12-23T06:19:28.693Z,8.46
2018-12-23T06:22:32.455Z,8.44
2018-12-23T06:25:35.947Z,8.38
2018-12-23T06:28:39.466Z,8.39
2018-12-23T06:31:43.260Z,8.31
2018-12-23T06:34:46.754Z,8.35
2018-12-23T06:37:50.496Z,8.39
2018-12-23T06:40:53.987Z,8.40
2018-12-23T06:43:57.860Z,8.43
2018-12-23T06:47:01.652Z,8.38
2018-12-23T06:50:05.758Z,8.42
2018-12-23T06:53:09.256Z,8.42
2018-12-23T06:56:13.480Z,8.35
2018-12-23T06:59:16.956Z,8.44
2018-12-23T07:02:21.148Z,8.48
2018-12-23T07:05:25.280Z,8.41
2018-12-23T07:08:28.759Z,8.44
2018-12-23T07:11:32.324Z,8.42
2018-12-23T07:14:36.130Z,8.45
2018-12-23T07:17:39.973Z,8.51
2018-12-23T07:20:43.437Z,8.50
2018-12-23T07:23:47.652Z,8.47
2018-12-23T07:26:51.122Z,8.41
2018-12-23T07:29:55.014Z,8.48
2018-12-23T07:32:58.888Z,8.45
2018-12-23T07:36:02.373Z,8.44
2018-12-23T07:39:06.599Z,8.48
2018-12-23T07:42:10.813Z,8.42
2018-12-23T07:45:14.335Z,8.49
2018-12-23T07:48:18.167Z,8.41
2018-12-23T07:51:21.965Z,8.44
2018-12-23T07:54:25.750Z,8.52
2018-12-23T07:57:29.226Z,8.47
2018-12-23T08:00:33.093Z,8.47
2018-12-23T08:03:37.518Z,8.51
2018-12-23T08:06:41.012Z,8.58
2018-12-23T08:09:44.957Z,8.55
2018-12-23T08:12:48.784Z,8.54
2018-12-23T08:15:53.301Z,8.58
2018-12-23T08:18:56.770Z,8.62
2018-12-23T08:22:00.553Z,8.68
2018-12-23T08:25:04.052Z,8.61
2018-12-23T08:28:07.512Z,8.61
2018-12-23T08:31:11.475Z,8.65
2018-12-23T08:34:15.942Z,8.62
2018-12-23T08:37:19.434Z,8.62
2018-12-23T08:40:23.047Z,8.72
2018-12-23T08:43:26.936Z,8.68
2018-12-23T08:46:38.968Z,8.73
2018-12-23T08:49:36.627Z,8.74
2018-12-23T08:52:40.158Z,8.84
2018-12-23T08:55:44.359Z,8.81
2018-12-23T08:58:48.277Z,8.83
2018-12-23T09:01:51.861Z,8.91
2018-12-23T09:04:55.333Z,8.85
2018-12-23T09:07:58.836Z,8.85
2018-12-23T09:11:02.965Z,8.83
2018-12-23T09:14:07.173Z,8.97
2018-12-23T09:17:10.782Z,8.89
2018-12-23T09:20:14.252Z,8.95
2018-12-23T09:23:18.921Z,8.95
2018-12-23T09:26:23.064Z,8.95
2018-12-23T09:29:27.228Z,8.89
2018-12-23T09:32:30.727Z,8.97
2018-12-23T09:35:34.973Z,8.97
2018-12-23T09:38:38.580Z,8.91
2018-12-23T09:41:42.678Z,8.98
2018-12-23T09:44:46.227Z,9.05
2018-12-23T09:47:50.087Z,9.01
2018-12-23T09:50:53.893Z,8.98
2018-12-23T09:53:57.806Z,8.99
2018-12-23T09:57:01.961Z,8.97
2018-12-23T10:00:06.463Z,9.07
2018-12-23T10:03:10.058Z,9.12
2018-12-23T10:06:13.567Z,9.06
2018-12-23T10:09:17.549Z,8.97
2018-12-23T10:12:21.420Z,9.02
2018-12-23T10:15:24.922Z,9.04
2018-12-23T10:18:28.530Z,9.03
2018-12-23T10:21:32.329Z,9.09
2018-12-23T10:24:37.009Z,9.13
2018-12-23T10:27:40.889Z,9.09
2018-12-23T10:30:44.431Z,9.12
2018-12-23T10:33:47.925Z,9.17
2018-12-23T10:36:51.724Z,9.09
2018-12-23T10:39:55.208Z,9.12
2018-12-23T10:42:58.708Z,9.00
2018-12-23T10:46:02.194Z,9.05
2018-12-23T10:49:06.038Z,9.07
2018-12-23T10:52:09.541Z,9.16
2018-12-23T10:55:13.383Z,9.18
2018-12-23T10:58:16.885Z,9.18
2018-12-23T11:01:20.364Z,9.16
2018-12-23T11:04:24.368Z,9.09
2018-12-23T11:07:27.887Z,9.20
2018-12-23T11:10:31.398Z,9.18
2018-12-23T11:13:35.392Z,9.20
2018-12-23T11:16:38.887Z,9.08
2018-12-23T11:19:42.813Z,9.08
2018-12-23T11:22:46.296Z,9.16
2018-12-23T11:25:49.807Z,9.47
2018-12-23T11:28:53.309Z,9.52
2018-12-23T11:31:57.146Z,9.24
2018-12-23T11:35:00.662Z,9.21
2018-12-23T11:38:04.155Z,9.23
2018-12-23T11:41:08.009Z,9.05
2018-12-23T11:44:11.553Z,11.97
2018-12-23T11:47:15.813Z,12.60
2018-12-23T11:50:19.349Z,11.96
2018-12-23T11:53:23.591Z,10.05
2018-12-23T11:56:27.091Z,9.77
2018-12-23T11:59:30.867Z,9.33
2018-12-23T12:02:34.758Z,9.32
2018-12-23T12:05:38.258Z,9.29
2018-12-23T12:08:43.810Z,9.22
2018-12-23T12:11:47.637Z,9.08
2018-12-23T12:14:51.424Z,9.17
2018-12-23T12:17:55.315Z,9.10
2018-12-23T12:20:59.162Z,9.16
2018-12-23T12:24:02.961Z,9.23
2018-12-23T12:27:06.924Z,9.18
2018-12-23T12:30:10.758Z,9.15
2018-12-23T12:33:14.262Z,9.17
2018-12-23T12:36:18.091Z,8.98
2018-12-23T12:39:21.824Z,9.07
2018-12-23T12:42:25.360Z,8.95
2018-12-23T12:45:28.851Z,8.91
2018-12-23T12:48:32.360Z,8.96
2018-12-23T12:51:35.877Z,8.69
2018-12-23T12:54:39.704Z,8.82
2018-12-23T12:57:43.241Z,8.73
2018-12-23T13:00:46.764Z,8.77
2018-12-23T13:03:50.320Z,8.70
2018-12-23T13:06:54.211Z,8.65
2018-12-23T13:09:59.136Z,8.70
2018-12-23T13:13:02.622Z,8.63
2018-12-23T13:16:06.881Z,8.60
2018-12-23T13:19:10.698Z,8.70
2018-12-23T13:22:14.601Z,8.65
2018-12-23T13:25:18.102Z,8.71
2018-12-23T13:28:22.626Z,8.62
2018-12-23T13:31:26.191Z,8.68
2018-12-23T13:34:31.826Z,8.68
2018-12-23T13:37:36.085Z,8.62
2018-12-23T13:41:39.227Z,8.67
2018-12-23T13:45:15.590Z,8.76
2018-12-23T13:49:01.826Z,8.73
2018-12-23T13:53:12.933Z,8.72
2018-12-23T13:57:00.184Z,8.74
2018-12-23T14:00:41.402Z,8.76
2018-12-23T14:04:15.101Z,8.81
2018-12-23T14:07:48.562Z,8.79
2018-12-23T14:11:55.497Z,8.76
2018-12-23T14:14:59.678Z,8.78
2018-12-23T14:18:03.238Z,8.75
2018-12-23T14:21:07.816Z,8.76
2018-12-23T14:24:11.442Z,8.78
2018-12-23T14:27:15.385Z,8.82
2018-12-23T14:30:19.261Z,8.84
2018-12-23T14:33:22.875Z,8.85
2018-12-23T14:36:26.361Z,8.94
2018-12-23T14:39:29.865Z,8.89
2018-12-23T14:42:34.151Z,8.89
2018-12-23T14:45:37.722Z,8.97
2018-12-23T14:48:41.505Z,8.88
2018-12-23T14:51:45.354Z,8.86
2018-12-23T14:54:49.900Z,8.88
2018-12-23T14:57:53.416Z,8.93
2018-12-23T15:00:57.290Z,8.88
2018-12-23T15:04:01.107Z,8.91
2018-12-23T15:07:04.581Z,8.82
2018-12-23T15:10:09.489Z,8.88
2018-12-23T15:13:13.080Z,8.83
2018-12-23T15:16:16.648Z,8.87
2018-12-23T15:19:20.156Z,8.88
2018-12-23T15:22:23.714Z,8.83
2018-12-23T15:25:27.226Z,8.81
2018-12-23T15:28:31.466Z,8.78
2018-12-23T15:31:35.701Z,8.81
2018-12-23T15:34:39.194Z,8.84
2018-12-23T15:37:42.702Z,8.87
2018-12-23T15:40:46.581Z,8.81
2018-12-23T15:43:50.071Z,8.85
2018-12-23T15:46:53.590Z,8.81
2018-12-23T15:49:57.492Z,8.78
2018-12-23T15:53:01.012Z,8.82
2018-12-23T15:56:04.810Z,8.81
2018-12-23T15:59:08.368Z,8.84
2018-12-23T16:02:12.504Z,8.77
2018-12-23T16:05:16.335Z,8.76
2018-12-23T16:08:20.156Z,8.82
2018-12-23T16:11:23.963Z,8.81
2018-12-23T16:14:27.487Z,8.78
2018-12-23T16:17:32.077Z,8.82
2018-12-23T16:20:37.016Z,8.83
2018-12-23T16:23:40.759Z,8.84
2018-12-23T16:26:44.608Z,8.85
2018-12-23T16:29:48.925Z,8.85
2018-12-23T16:32:52.480Z,8.89
2018-12-23T16:35:56.458Z,8.85
2018-12-23T16:39:00.005Z,8.86
2018-12-23T16:42:03.493Z,8.77
2018-12-23T16:45:07.392Z,8.84
2018-12-23T16:48:10.928Z,8.79
2018-12-23T16:51:14.863Z,8.84
2018-12-23T16:54:18.368Z,8.86
2018-12-23T16:57:21.846Z,8.79
2018-12-23T17:00:25.396Z,8.80
2018-12-23T17:03:28.979Z,8.78
2018-12-23T17:06:32.486Z,8.75
2018-12-23T17:09:36.290Z,8.79
2018-12-23T17:12:40.227Z,8.73
2018-12-23T17:15:43.736Z,8.76
2018-12-23T17:18:47.557Z,8.77
2018-12-23T17:21:51.065Z,8.75
2018-12-23T17:24:54.921Z,8.76
2018-12-23T17:27:58.405Z,8.74
2018-12-23T17:31:02.969Z,8.85
2018-12-23T17:34:06.456Z,8.77
2018-12-23T17:37:10.078Z,8.76
2018-12-23T17:40:16.623Z,8.76
2018-12-23T17:43:20.075Z,8.75
2018-12-23T17:46:23.893Z,8.75
2018-12-23T17:49:27.389Z,8.71
2018-12-23T17:52:31.172Z,8.70
2018-12-23T17:55:35.575Z,8.67
2018-12-23T17:58:39.467Z,8.70
2018-12-23T18:01:43.070Z,8.65
2018-12-23T18:04:46.563Z,8.68
2018-12-23T18:07:50.073Z,8.75
2018-12-23T18:10:53.879Z,8.73
2018-12-23T18:13:57.721Z,8.72
2018-12-23T18:17:01.955Z,8.70
2018-12-23T18:20:06.982Z,8.72
2018-12-23T18:23:10.964Z,8.71
2018-12-23T18:26:15.189Z,8.73
2018-12-23T18:29:18.689Z,8.75
2018-12-23T18:32:22.224Z,8.85
2018-12-23T18:35:25.981Z,8.81
2018-12-23T18:38:29.492Z,8.74
2018-12-23T18:41:33.708Z,8.69
2018-12-23T18:44:37.398Z,8.69
2018-12-23T18:47:40.890Z,8.69
2018-12-23T18:50:44.798Z,8.72
2018-12-23T18:53:49.402Z,8.75
2018-12-23T18:57:01.463Z,8.68
2018-12-23T19:00:06.521Z,8.73
2018-12-23T19:03:10.497Z,8.75
2018-12-23T19:06:14.042Z,9.76
2018-12-23T19:09:31.069Z,9.04
2018-12-23T19:13:53.466Z,8.90
2018-12-23T19:18:00.293Z,8.79
2018-12-23T19:22:11.106Z,8.82
2018-12-23T19:26:32.635Z,8.76
2018-12-23T19:30:29.104Z,8.76
2018-12-23T19:34:12.622Z,8.72
2018-12-23T19:38:41.001Z,8.71
2018-12-23T19:43:00.878Z,8.75
2018-12-23T19:47:02.534Z,8.84
2018-12-23T19:50:56.924Z,8.73
2018-12-23T19:54:52.387Z,8.68
2018-12-23T19:59:24.912Z,8.61
2018-12-23T20:03:41.024Z,8.63
2018-12-23T20:07:39.501Z,8.68
2018-12-23T20:11:26.120Z,8.64
2018-12-23T20:15:01.898Z,8.62
2018-12-23T20:19:05.044Z,8.64
2018-12-23T20:22:56.615Z,8.54
2018-12-23T20:27:04.755Z,8.43
2018-12-23T20:30:54.178Z,8.44
2018-12-23T20:35:11.568Z,8.40
2018-12-23T20:39:26.477Z,8.33
2018-12-23T20:43:24.211Z,8.35
2018-12-23T20:47:09.533Z,8.15
2018-12-23T20:51:01.348Z,8.41
2018-12-23T20:55:13.888Z,8.30
2018-12-23T20:59:01.908Z,8.23
2018-12-23T21:02:59.619Z,7.98
2018-12-23T21:07:06.095Z,8.19
2018-12-23T21:11:28.510Z,8.22
2018-12-23T21:15:40.042Z,8.23
2018-12-23T21:19:46.725Z,8.12
2018-12-23T21:23:32.156Z,8.22
2018-12-23T21:27:57.896Z,8.25
2018-12-23T21:31:57.767Z,8.12
2018-12-23T21:35:42.685Z,8.01
2018-12-23T21:39:39.988Z,8.11
2018-12-23T21:43:57.277Z,8.08
2018-12-23T21:48:04.265Z,8.54
2018-12-23T21:52:01.232Z,8.29
2018-12-23T21:56:23.045Z,8.11
2018-12-23T22:00:31.086Z,8.19
2018-12-23T22:04:27.750Z,8.06
2018-12-23T22:08:53.822Z,8.11
2018-12-23T22:12:44.323Z,8.06
2018-12-23T22:15:48.493Z,8.04
2018-12-23T22:18:52.925Z,7.99
2018-12-23T22:21:56.799Z,8.04
2018-12-23T22:25:00.614Z,8.11
2018-12-23T22:28:04.225Z,8.02
2018-12-23T22:31:08.021Z,8.06
2018-12-23T22:34:11.835Z,8.03
2018-12-23T22:37:15.765Z,8.00
2018-12-23T22:40:19.257Z,8.03
2018-12-23T22:43:22.858Z,8.01
2018-12-23T22:46:26.382Z,8.01
2018-12-23T22:49:29.961Z,8.00
2018-12-23T22:52:34.272Z,7.96
2018-12-23T22:55:38.072Z,8.01
2018-12-23T22:58:41.578Z,7.91
2018-12-23T23:01:45.562Z,7.99
2018-12-23T23:04:49.073Z,7.96
2018-12-23T23:07:52.629Z,7.91
2018-12-23T23:10:56.922Z,7.96
2018-12-23T23:14:00.530Z,7.87
2018-12-23T23:17:04.435Z,7.86
2018-12-23T23:20:07.936Z,7.81
2018-12-23T23:23:12.039Z,7.90
2018-12-23T23:26:15.936Z,7.95
2018-12-23T23:29:19.954Z,7.88
2018-12-23T23:32:23.456Z,7.64
2018-12-23T23:35:27.285Z,7.66
2018-12-23T23:38:31.110Z,7.65
2018-12-23T23:41:34.900Z,7.72
2018-12-23T23:44:38.383Z,7.69
2018-12-23T23:47:42.370Z,7.50
2018-12-23T23:50:45.900Z,7.54
2018-12-23T23:53:49.398Z,7.58
2018-12-23T23:56:52.916Z,7.64
2018-12-23T23:59:56.700Z,7.56
